Time;durP1;ratioP1;P1;durP2;ratioP2;P2;SDS_P1;SDS_P2;PMS_P1;PMS_P2;Temp;Humidity;BMP_temperature;BMP_pressure;BME280_temperature;BME280_humidity;BME280_pressure;Samples;Min_cycle;Max_cycle;Signal;HPM_P1;HPM_P2
2020/12/08 00:00:39;;;;;;;;;;;;;;;;;;5041591;28;19948;-83
2020/12/08 00:03:05;;;;;;;;;;;;;;;;;;5053727;28;19925;-83
2020/12/08 00:05:31;;;;;;;;;;;;;;;;;;5051873;28;19978;-83
2020/12/08 00:07:58;;;;;;;;;;;;;;;;;;5048230;28;19925;-82
2020/12/08 00:10:24;;;;;;;;;;;;;;;;;;5038963;28;19926;-83
2020/12/08 00:12:51;;;;;;;;;;;;;;;;;;5038669;28;20366;-83
2020/12/08 00:15:17;;;;;;;;;;;;;;;;;;5048198;28;19925;-83
2020/12/08 00:17:44;;;;;;;;;;;;;;;;;;5042346;28;19932;-83
2020/12/08 00:20:10;;;;;;;;;;;;;;;;;;5057542;28;20283;-82
2020/12/08 00:22:36;;;;;;;;;;;;;;;;;;5047665;28;19948;-82
2020/12/08 00:25:03;;;;;;;;;;;;;;;;;;5040753;28;19925;-82
2020/12/08 00:27:29;;;;;;;;;;;;;;;;;;5046254;28;19925;-82
2020/12/08 00:29:55;;;;;;;;;;;;;;;;;;5039291;28;19925;-83
2020/12/08 00:32:22;;;;;;;;;;;;;;;;;;5038676;28;19924;-82
2020/12/08 00:34:48;;;;;;;;;;;;;;;;;;5053543;28;19925;-82
2020/12/08 00:37:14;;;;;;;;;;;;;;;;;;5067820;28;19925;-82
2020/12/08 00:39:41;;;;;;;;;;;;;;;;;;5057383;28;19925;-82
2020/12/08 00:42:07;;;;;;;;;;;;;;;;;;5052750;28;19951;-81
2020/12/08 00:44:34;;;;;;;;;;;;;;;;;;5064299;28;19935;-83
2020/12/08 00:47:02;;;;;;;;;;;;;;;;;;5056222;28;19975;-83
2020/12/08 00:49:29;;;;;;;;;;;;;;;;;;5043339;28;19925;-82
2020/12/08 00:51:55;;;;;;;;;;;;;;;;;;5043048;28;20374;-81
2020/12/08 00:54:21;;;;;;;;;;;;;;;;;;5050157;28;19913;-81
2020/12/08 00:56:48;;;;;;;;;;;;;;;;;;5057908;28;19925;-79
2020/12/08 00:59:14;;;;;;;;;;;;;;;;;;5049219;28;20390;-82
2020/12/08 01:01:40;;;;;;;;;;;;;;;;;;5043471;28;19929;-82
2020/12/08 01:04:08;;;;;;;;;;;;;;;;;;5041566;28;19925;-82
2020/12/08 01:06:35;;;;;;;;;;;;;;;;;;5041177;28;19967;-81
2020/12/08 01:09:01;;;;;;;;;;;;;;;;;;5046036;28;19925;-80
2020/12/08 01:11:27;;;;;;;;;;;;;;;;;;5050360;28;19932;-81
2020/12/08 01:13:54;;;;;;;;;;;;;;;;;;5054196;28;20358;-82
2020/12/08 01:16:20;;;;;;;;;;;;;;;;;;5051657;28;19952;-81
2020/12/08 01:18:46;;;;;;;;;;;;;;;;;;5049137;28;19925;-80
2020/12/08 01:21:13;;;;;;;;;;;;;;;;;;5049263;28;19913;-81
2020/12/08 01:23:39;;;;;;;;;;;;;;;;;;5061266;28;19924;-81
2020/12/08 01:26:05;;;;;;;;;;;;;;;;;;5053665;28;19925;-82
2020/12/08 01:28:32;;;;;;;;;;;;;;;;;;5044100;28;19925;-82
2020/12/08 01:30:58;;;;;;;;;;;;;;;;;;5047856;28;20324;-82
2020/12/08 01:33:24;;;;;;;;;;;;;;;;;;5042740;28;19925;-81
2020/12/08 01:35:51;;;;;;;;;;;;;;;;;;5042818;28;19929;-82
2020/12/08 01:38:17;;;;;;;;;;;;;;;;;;5041874;28;19925;-83
2020/12/08 01:40:44;;;;;;;;;;;;;;;;;;5051612;28;19925;-82
2020/12/08 01:43:10;;;;;;;;;;;;;;;;;;5042566;28;19974;-82
2020/12/08 01:45:36;;;;;;;;;;;;;;;;;;5043948;28;19925;-81
2020/12/08 01:48:03;;;;;;;;;;;;;;;;;;5042757;28;20373;-82
2020/12/08 01:50:29;;;;;;;;;;;;;;;;;;5044041;28;19913;-80
2020/12/08 01:52:55;;;;;;;;;;;;;;;;;;5057703;28;19910;-80
2020/12/08 01:55:22;;;;;;;;;;;;;;;;;;5046739;28;19925;-83
2020/12/08 01:57:48;;;;;;;;;;;;;;;;;;5044131;28;19929;-83
2020/12/08 02:00:15;;;;;;;;;;;;;;;;;;5043504;28;19925;-82
2020/12/08 02:02:41;;;;;;;;;;;;;;;;;;5043603;28;19929;-82
2020/12/08 02:05:07;;;;;;;;;;;;;;;;;;5041983;28;19925;-83
2020/12/08 02:07:34;;;;;;;;;;;;;;;;;;5043725;28;20000;-83
2020/12/08 02:10:00;;;;;;;;;;;;;;;;;;5043158;28;19933;-81
2020/12/08 02:12:26;;;;;;;;;;;;;;;;;;5040939;28;19979;-81
2020/12/08 02:14:53;;;;;;;;;;;;;;;;;;5043860;28;19925;-82
2020/12/08 02:17:19;;;;;;;;;;;;;;;;;;5043668;28;19929;-82
2020/12/08 02:19:46;;;;;;;;;;;;;;;;;;5043932;28;20397;-81
2020/12/08 02:22:12;;;;;;;;;;;;;;;;;;5043487;28;20019;-83
2020/12/08 02:24:38;;;;;;;;;;;;;;;;;;5042731;28;19925;-82
2020/12/08 02:27:05;;;;;;;;;;;;;;;;;;5042031;28;19925;-82
2020/12/08 02:29:31;;;;;;;;;;;;;;;;;;5041163;28;19926;-81
2020/12/08 02:31:57;;;;;;;;;;;;;;;;;;5041644;28;20325;-80
2020/12/08 02:34:24;;;;;;;;;;;;;;;;;;5040248;28;19948;-81
2020/12/08 02:36:50;;;;;;;;;;;;;;;;;;5041163;28;19951;-80
2020/12/08 02:39:16;;;;;;;;;;;;;;;;;;5041231;28;19925;-81
2020/12/08 02:41:43;;;;;;;;;;;;;;;;;;5041333;28;19929;-80
2020/12/08 02:44:09;;;;;;;;;;;;;;;;;;5041536;28;20334;-82
2020/12/08 02:46:37;;;;;;;;;;;;;;;;;;5039857;28;19925;-81
2020/12/08 02:49:03;;;;;;;;;;;;;;;;;;5039173;28;19932;-81
2020/12/08 02:51:30;;;;;;;;;;;;;;;;;;5042350;28;20023;-82
2020/12/08 02:53:56;;;;;;;;;;;;;;;;;;5042393;28;19979;-82
2020/12/08 02:56:22;;;;;;;;;;;;;;;;;;5042191;28;19925;-81
2020/12/08 02:58:49;;;;;;;;;;;;;;;;;;5046059;28;19925;-79
2020/12/08 03:01:15;;;;;;;;;;;;;;;;;;5042613;28;19995;-82
2020/12/08 03:03:41;;;;;;;;;;;;;;;;;;5038986;28;19933;-81
2020/12/08 03:06:08;;;;;;;;;;;;;;;;;;5029190;28;20333;-79
2020/12/08 03:08:34;;;;;;;;;;;;;;;;;;5036792;28;19925;-82
2020/12/08 03:11:01;;;;;;;;;;;;;;;;;;5028637;28;19929;-83
2020/12/08 03:13:29;;;;;;;;;;;;;;;;;;5036556;28;19948;-82
2020/12/08 03:15:56;;;;;;;;;;;;;;;;;;5028139;28;20442;-82
2020/12/08 03:18:22;;;;;;;;;;;;;;;;;;5045876;28;20025;-82
2020/12/08 03:20:49;;;;;;;;;;;;;;;;;;5043331;28;19948;-84
2020/12/08 03:23:15;;;;;;;;;;;;;;;;;;5042623;28;19971;-83
2020/12/08 03:25:41;;;;;;;;;;;;;;;;;;5043451;28;20382;-83
2020/12/08 03:28:08;;;;;;;;;;;;;;;;;;5037770;28;19925;-83
2020/12/08 03:30:34;;;;;;;;;;;;;;;;;;5043006;28;19979;-84
2020/12/08 03:33:00;;;;;;;;;;;;;;;;;;5043094;28;19929;-81
2020/12/08 03:35:27;;;;;;;;;;;;;;;;;;5043582;28;20340;-84
2020/12/08 03:37:53;;;;;;;;;;;;;;;;;;5044150;28;19929;-82
2020/12/08 03:40:20;;;;;;;;;;;;;;;;;;5046695;28;19929;-84
2020/12/08 03:42:46;;;;;;;;;;;;;;;;;;5043092;28;19932;-81
2020/12/08 03:45:12;;;;;;;;;;;;;;;;;;5042675;28;19972;-81
2020/12/08 03:47:39;;;;;;;;;;;;;;;;;;5041999;28;19971;-81
2020/12/08 03:50:05;;;;;;;;;;;;;;;;;;5040977;28;19971;-82
2020/12/08 03:52:31;;;;;;;;;;;;;;;;;;5042271;28;20440;-82
2020/12/08 03:54:58;;;;;;;;;;;;;;;;;;5043044;28;19932;-83
2020/12/08 03:57:24;;;;;;;;;;;;;;;;;;5042284;28;19979;-82
2020/12/08 03:59:50;;;;;;;;;;;;;;;;;;5042143;28;19937;-82
2020/12/08 04:02:17;;;;;;;;;;;;;;;;;;5041840;28;19936;-83
2020/12/08 04:04:43;;;;;;;;;;;;;;;;;;5042510;28;19932;-81
2020/12/08 04:07:10;;;;;;;;;;;;;;;;;;5047729;28;19936;-81
2020/12/08 04:09:36;;;;;;;;;;;;;;;;;;5050653;28;19979;-81
2020/12/08 04:12:02;;;;;;;;;;;;;;;;;;5051584;28;19995;-83
2020/12/08 04:14:29;;;;;;;;;;;;;;;;;;5033882;28;19925;-82
2020/12/08 04:16:55;;;;;;;;;;;;;;;;;;5042608;28;19929;-82
2020/12/08 04:19:21;;;;;;;;;;;;;;;;;;5042053;28;19933;-83
2020/12/08 04:21:48;;;;;;;;;;;;;;;;;;5042849;28;19932;-84
2020/12/08 04:24:14;;;;;;;;;;;;;;;;;;5050311;28;20427;-81
2020/12/08 04:26:40;;;;;;;;;;;;;;;;;;5063936;28;19951;-80
2020/12/08 04:29:07;;;;;;;;;;;;;;;;;;5056596;28;19948;-81
2020/12/08 04:31:33;;;;;;;;;;;;;;;;;;5055677;28;19933;-80
2020/12/08 04:34:00;;;;;;;;;;;;;;;;;;5050971;28;20506;-82
2020/12/08 04:36:26;;;;;;;;;;;;;;;;;;5058607;28;19925;-81
2020/12/08 04:38:52;;;;;;;;;;;;;;;;;;5054461;28;19925;-83
2020/12/08 04:41:19;;;;;;;;;;;;;;;;;;5039541;28;19951;-83
2020/12/08 04:43:45;;;;;;;;;;;;;;;;;;5040815;28;19925;-82
2020/12/08 04:46:11;;;;;;;;;;;;;;;;;;5040682;28;19925;-82
2020/12/08 04:48:38;;;;;;;;;;;;;;;;;;5040125;28;19933;-82
2020/12/08 04:51:04;;;;;;;;;;;;;;;;;;5041861;28;19987;-82
2020/12/08 04:53:31;;;;;;;;;;;;;;;;;;5043697;28;19929;-82
2020/12/08 04:55:57;;;;;;;;;;;;;;;;;;5044067;28;19925;-81
2020/12/08 04:58:23;;;;;;;;;;;;;;;;;;5049280;28;20284;-83
2020/12/08 05:00:50;;;;;;;;;;;;;;;;;;5053012;28;20104;-81
2020/12/08 05:03:16;;;;;;;;;;;;;;;;;;5048338;28;19925;-81
2020/12/08 05:05:42;;;;;;;;;;;;;;;;;;5047376;28;20437;-83
2020/12/08 05:08:09;;;;;;;;;;;;;;;;;;5050399;28;19929;-80
2020/12/08 05:10:35;;;;;;;;;;;;;;;;;;5049670;28;19929;-82
2020/12/08 05:13:02;;;;;;;;;;;;;;;;;;5048375;28;19925;-82
2020/12/08 05:15:28;;;;;;;;;;;;;;;;;;5045317;28;19929;-82
2020/12/08 05:17:54;;;;;;;;;;;;;;;;;;5041038;28;19931;-82
2020/12/08 05:20:22;;;;;;;;;;;;;;;;;;5040816;28;19925;-82
2020/12/08 05:22:48;;;;;;;;;;;;;;;;;;5041871;28;19925;-82
2020/12/08 05:25:15;;;;;;;;;;;;;;;;;;5042390;28;19925;-82
2020/12/08 05:27:42;;;;;;;;;;;;;;;;;;5046145;28;20424;-80
2020/12/08 05:30:08;;;;;;;;;;;;;;;;;;5049811;28;19925;-79
2020/12/08 05:32:34;;;;;;;;;;;;;;;;;;5037355;28;19925;-81
2020/12/08 05:35:01;;;;;;;;;;;;;;;;;;5038243;28;19932;-83
2020/12/08 05:37:27;;;;;;;;;;;;;;;;;;5036539;28;19929;-81
2020/12/08 05:39:54;;;;;;;;;;;;;;;;;;5036119;28;19925;-82
2020/12/08 05:42:20;;;;;;;;;;;;;;;;;;5048933;28;19964;-82
2020/12/08 05:44:46;;;;;;;;;;;;;;;;;;5040154;28;19947;-81
2020/12/08 05:47:13;;;;;;;;;;;;;;;;;;5039700;28;19929;-83
2020/12/08 05:49:39;;;;;;;;;;;;;;;;;;5040326;28;19925;-83
2020/12/08 05:52:06;;;;;;;;;;;;;;;;;;5039790;28;19971;-83
2020/12/08 05:54:32;;;;;;;;;;;;;;;;;;5039714;28;19980;-83
2020/12/08 05:56:58;;;;;;;;;;;;;;;;;;5040475;28;20436;-83
2020/12/08 05:59:25;;;;;;;;;;;;;;;;;;5040000;28;19971;-83
2020/12/08 06:01:51;;;;;;;;;;;;;;;;;;5039453;28;20384;-82
2020/12/08 06:04:17;;;;;;;;;;;;;;;;;;5039397;28;19925;-83
2020/12/08 06:06:44;;;;;;;;;;;;;;;;;;5039750;28;19925;-83
2020/12/08 06:09:10;;;;;;;;;;;;;;;;;;5039921;28;20385;-82
2020/12/08 06:11:36;;;;;;;;;;;;;;;;;;5041258;28;19925;-81
2020/12/08 06:14:03;;;;;;;;;;;;;;;;;;5047209;28;20003;-80
2020/12/08 06:16:29;;;;;;;;;;;;;;;;;;5041304;28;20348;-82
2020/12/08 06:18:56;;;;;;;;;;;;;;;;;;5039288;28;19979;-82
2020/12/08 06:21:22;;;;;;;;;;;;;;;;;;5039824;28;19928;-82
2020/12/08 06:23:48;;;;;;;;;;;;;;;;;;5027744;28;19925;-82
2020/12/08 06:26:15;;;;;;;;;;;;;;;;;;5040234;28;19925;-82
2020/12/08 06:28:41;;;;;;;;;;;;;;;;;;5039644;28;19929;-82
2020/12/08 06:31:08;;;;;;;;;;;;;;;;;;5039482;28;19948;-84
2020/12/08 06:33:34;;;;;;;;;;;;;;;;;;5039090;28;20275;-83
2020/12/08 06:36:00;;;;;;;;;;;;;;;;;;5040204;28;19929;-83
2020/12/08 06:38:27;;;;;;;;;;;;;;;;;;5040196;28;19929;-83
2020/12/08 06:40:53;;;;;;;;;;;;;;;;;;5039042;28;19929;-84
2020/12/08 06:43:19;;;;;;;;;;;;;;;;;;5037983;28;19932;-83
2020/12/08 06:45:46;;;;;;;;;;;;;;;;;;5038178;28;20471;-82
2020/12/08 06:48:12;;;;;;;;;;;;;;;;;;5058173;28;19924;-83
2020/12/08 06:50:39;;;;;;;;;;;;;;;;;;5039761;28;19932;-83
2020/12/08 06:53:05;;;;;;;;;;;;;;;;;;5038231;28;20447;-83
2020/12/08 06:55:31;;;;;;;;;;;;;;;;;;5038471;28;19925;-82
2020/12/08 06:57:58;;;;;;;;;;;;;;;;;;5041228;28;19933;-84
2020/12/08 07:00:24;;;;;;;;;;;;;;;;;;5041375;28;20329;-83
2020/12/08 07:02:51;;;;;;;;;;;;;;;;;;5044319;28;19935;-83
2020/12/08 07:05:17;;;;;;;;;;;;;;;;;;5042179;28;20376;-84
2020/12/08 07:07:43;;;;;;;;;;;;;;;;;;5051044;28;19925;-84
2020/12/08 07:10:10;;;;;;;;;;;;;;;;;;5042003;28;19929;-83
2020/12/08 07:12:36;;;;;;;;;;;;;;;;;;5043175;28;19933;-85
2020/12/08 07:15:03;;;;;;;;;;;;;;;;;;5038109;28;19929;-84
2020/12/08 07:17:29;;;;;;;;;;;;;;;;;;5038765;28;19925;-87
2020/12/08 07:19:56;;;;;;;;;;;;;;;;;;5038847;28;19931;-87
2020/12/08 07:22:22;;;;;;;;;;;;;;;;;;5038097;28;20416;-87
2020/12/08 07:24:49;;;;;;;;;;;;;;;;;;5038764;28;19933;-88
2020/12/08 07:27:15;;;;;;;;;;;;;;;;;;5036476;28;19926;-84
2020/12/08 07:29:42;;;;;;;;;;;;;;;;;;5039625;28;19941;-80
2020/12/08 07:32:08;;;;;;;;;;;;;;;;;;5043574;28;19931;-81
2020/12/08 07:34:34;;;;;;;;;;;;;;;;;;5041786;28;19925;-85
2020/12/08 07:37:01;;;;;;;;;;;;;;;;;;5041128;28;19925;-84
2020/12/08 07:39:27;;;;;;;;;;;;;;;;;;5040737;28;19947;-84
2020/12/08 07:41:54;;;;;;;;;;;;;;;;;;5040519;28;19925;-82
2020/12/08 07:44:21;;;;;;;;;;;;;;;;;;5040489;28;19936;-82
2020/12/08 07:46:48;;;;;;;;;;;;;;;;;;5041811;28;20015;-82
2020/12/08 07:49:14;;;;;;;;;;;;;;;;;;5045991;28;19925;-81
2020/12/08 07:51:41;;;;;;;;;;;;;;;;;;5049521;28;19925;-82
2020/12/08 07:54:07;;;;;;;;;;;;;;;;;;5038381;28;19932;-82
2020/12/08 07:56:34;;;;;;;;;;;;;;;;;;5039049;28;19979;-81
2020/12/08 07:59:00;;;;;;;;;;;;;;;;;;5062549;28;19929;-83
2020/12/08 08:01:26;;;;;;;;;;;;;;;;;;5057344;28;19925;-84
2020/12/08 08:03:54;;;;;;;;;;;;;;;;;;5051943;28;19935;-83
2020/12/08 08:06:21;;;;;;;;;;;;;;;;;;5052042;28;19929;-81
2020/12/08 08:08:50;;;;;;;;;;;;;;;;;;5053072;28;19964;-82
2020/12/08 08:11:17;;;;;;;;;;;;;;;;;;5047311;28;19929;-82
2020/12/08 08:13:45;;;;;;;;;;;;;;;;;;5042655;28;20378;-83
2020/12/08 08:16:12;;;;;;;;;;;;;;;;;;5033403;28;19967;-81
2020/12/08 08:18:38;;;;;;;;;;;;;;;;;;5040882;28;19926;-80
2020/12/08 08:21:07;;;;;;;;;;;;;;;;;;5035705;28;19932;-84
2020/12/08 08:23:34;;;;;;;;;;;;;;;;;;5053240;28;19925;-84
2020/12/08 08:26:01;;;;;;;;;;;;;;;;;;5048172;28;19936;-79
2020/12/08 08:28:27;;;;;;;;;;;;;;;;;;5060576;28;19935;-83
2020/12/08 08:30:54;;;;;;;;;;;;;;;;;;5054167;28;20008;-84
2020/12/08 08:33:20;;;;;;;;;;;;;;;;;;5040684;28;20390;-84
2020/12/08 08:35:47;;;;;;;;;;;;;;;;;;5037393;28;19983;-84
2020/12/08 08:38:13;;;;;;;;;;;;;;;;;;5040119;28;19964;-83
2020/12/08 08:40:40;;;;;;;;;;;;;;;;;;5041721;28;20377;-86
2020/12/08 08:43:07;;;;;;;;;;;;;;;;;;5048169;28;19925;-85
2020/12/08 08:45:33;;;;;;;;;;;;;;;;;;5040414;28;19925;-85
2020/12/08 08:48:00;;;;;;;;;;;;;;;;;;5052013;28;19976;-82
2020/12/08 08:50:27;;;;;;;;;;;;;;;;;;5055071;28;19955;-79
2020/12/08 08:52:53;;;;;;;;;;;;;;;;;;5041940;28;20274;-81
2020/12/08 08:55:20;;;;;;;;;;;;;;;;;;5039760;28;19929;-81
2020/12/08 08:57:46;;;;;;;;;;;;;;;;;;5038973;28;20624;-83
2020/12/08 09:00:13;;;;;;;;;;;;;;;;;;5040819;28;19929;-81
2020/12/08 09:02:40;;;;;;;;;;;;;;;;;;5053669;28;19988;-83
2020/12/08 09:05:13;;;;;;;;;;;;;;;;;;5041663;28;19964;-84
2020/12/08 09:07:40;;;;;;;;;;;;;;;;;;5040545;28;19925;-81
2020/12/08 09:10:07;;;;;;;;;;;;;;;;;;5040474;28;19994;-81
2020/12/08 09:12:33;;;;;;;;;;;;;;;;;;5040052;28;19972;-81
2020/12/08 09:15:02;;;;;;;;;;;;;;;;;;5037291;28;19929;-82
2020/12/08 09:17:29;;;;;;;;;;;;;;;;;;5042918;28;19925;-82
2020/12/08 09:19:56;;;;;;;;;;;;;;;;;;5040807;28;19936;-81
2020/12/08 09:22:22;;;;;;;;;;;;;;;;;;5052312;28;20015;-82
2020/12/08 09:24:49;;;;;;;;;;;;;;;;;;5039400;28;19931;-80
2020/12/08 09:27:16;;;;;;;;;;;;;;;;;;5041957;28;19933;-80
2020/12/08 09:29:42;;;;;;;;;;;;;;;;;;5040927;28;19925;-81
2020/12/08 09:32:09;;;;;;;;;;;;;;;;;;5037541;28;19925;-81
2020/12/08 09:34:36;;;;;;;;;;;;;;;;;;5036133;28;19964;-81
2020/12/08 09:37:02;;;;;;;;;;;;;;;;;;5041226;28;19931;-81
2020/12/08 09:39:29;;;;;;;;;;;;;;;;;;5040278;28;19971;-80
2020/12/08 09:41:56;;;;;;;;;;;;;;;;;;5029087;28;19960;-80
2020/12/08 09:44:22;;;;;;;;;;;;;;;;;;5036701;28;19929;-81
2020/12/08 09:46:49;;;;;;;;;;;;;;;;;;5051537;28;19956;-82
2020/12/08 09:49:15;;;;;;;;;;;;;;;;;;5041471;28;20007;-81
2020/12/08 09:51:42;;;;;;;;;;;;;;;;;;5037653;28;19925;-82
2020/12/08 09:54:09;;;;;;;;;;;;;;;;;;5050733;28;19925;-81
2020/12/08 09:56:36;;;;;;;;;;;;;;;;;;5040794;28;19925;-81
2020/12/08 09:59:02;;;;;;;;;;;;;;;;;;5067156;28;19925;-81
2020/12/08 10:01:29;;;;;;;;;;;;;;;;;;5047262;28;19948;-82
2020/12/08 10:03:57;;;;;;;;;;;;;;;;;;5035814;28;19926;-82
2020/12/08 10:06:23;;;;;;;;;;;;;;;;;;5051965;28;20024;-83
2020/12/08 10:08:53;;;;;;;;;;;;;;;;;;5041741;28;19935;-83
2020/12/08 10:11:20;;;;;;;;;;;;;;;;;;5039949;28;19929;-84
2020/12/08 10:13:47;;;;;;;;;;;;;;;;;;5036330;28;19979;-82
2020/12/08 10:16:13;;;;;;;;;;;;;;;;;;5036833;28;19960;-82
2020/12/08 10:18:40;;;;;;;;;;;;;;;;;;5045125;28;20378;-81
2020/12/08 10:21:06;;;;;;;;;;;;;;;;;;5043903;28;19967;-82
2020/12/08 10:23:33;;;;;;;;;;;;;;;;;;5042092;28;20340;-81
2020/12/08 10:26:00;;;;;;;;;;;;;;;;;;5036409;28;19939;-82
2020/12/08 10:28:26;;;;;;;;;;;;;;;;;;5037739;28;19929;-83
2020/12/08 10:30:53;;;;;;;;;;;;;;;;;;5040845;28;19925;-83
2020/12/08 10:33:19;;;;;;;;;;;;;;;;;;5047889;28;19935;-82
2020/12/08 10:35:46;;;;;;;;;;;;;;;;;;5046563;28;19964;-82
2020/12/08 10:38:14;;;;;;;;;;;;;;;;;;5041507;28;19959;-80
2020/12/08 10:40:40;;;;;;;;;;;;;;;;;;5047066;28;19925;-81
2020/12/08 10:43:07;;;;;;;;;;;;;;;;;;5040728;28;19926;-81
2020/12/08 10:45:34;;;;;;;;;;;;;;;;;;5040422;28;19980;-81
2020/12/08 10:48:00;;;;;;;;;;;;;;;;;;5040353;28;19925;-81
2020/12/08 10:50:27;;;;;;;;;;;;;;;;;;5047581;28;20328;-82
2020/12/08 10:52:54;;;;;;;;;;;;;;;;;;5047206;28;20332;-81
2020/12/08 10:55:21;;;;;;;;;;;;;;;;;;5038108;28;19983;-83
2020/12/08 10:57:48;;;;;;;;;;;;;;;;;;5042579;28;19925;-83
2020/12/08 11:00:15;;;;;;;;;;;;;;;;;;5043309;28;20028;-84
2020/12/08 11:02:41;;;;;;;;;;;;;;;;;;5045444;28;19988;-81
2020/12/08 11:05:08;;;;;;;;;;;;;;;;;;5053600;28;19992;-81
2020/12/08 11:07:35;;;;;;;;;;;;;;;;;;5065081;28;19964;-81
2020/12/08 11:10:01;;;;;;;;;;;;;;;;;;5048457;28;19948;-82
2020/12/08 11:12:28;;;;;;;;;;;;;;;;;;5040769;28;19967;-83
2020/12/08 11:14:55;;;;;;;;;;;;;;;;;;5042764;28;19932;-82
2020/12/08 11:17:21;;;;;;;;;;;;;;;;;;5040356;28;19975;-83
2020/12/08 11:19:48;;;;;;;;;;;;;;;;;;5039620;28;19925;-83
2020/12/08 11:22:15;;;;;;;;;;;;;;;;;;5059318;28;19985;-83
2020/12/08 11:24:41;;;;;;;;;;;;;;;;;;5055285;28;19929;-83
2020/12/08 11:27:08;;;;;;;;;;;;;;;;;;5063828;28;19928;-82
2020/12/08 11:29:35;;;;;;;;;;;;;;;;;;5062103;28;19934;-82
2020/12/08 11:32:01;;;;;;;;;;;;;;;;;;5051068;28;19925;-80
2020/12/08 11:34:28;;;;;;;;;;;;;;;;;;5050856;28;19968;-82
2020/12/08 11:36:54;;;;;;;;;;;;;;;;;;5049362;28;20016;-82
2020/12/08 11:39:21;;;;;;;;;;;;;;;;;;5066055;28;19976;-82
2020/12/08 11:41:48;;;;;;;;;;;;;;;;;;5053067;28;19964;-82
2020/12/08 11:44:14;;;;;;;;;;;;;;;;;;5046155;28;19926;-83
2020/12/08 11:46:41;;;;;;;;;;;;;;;;;;5043827;28;19925;-81
2020/12/08 11:49:08;;;;;;;;;;;;;;;;;;5052263;28;19929;-80
2020/12/08 11:51:35;;;;;;;;;;;;;;;;;;5056769;28;20016;-81
2020/12/08 11:54:01;;;;;;;;;;;;;;;;;;5043061;28;20041;-81
2020/12/08 11:56:28;;;;;;;;;;;;;;;;;;5043888;28;19925;-81
2020/12/08 11:58:56;;;;;;;;;;;;;;;;;;5037976;28;19965;-81
2020/12/08 12:01:22;;;;;;;;;;;;;;;;;;5041001;28;20015;-81
2020/12/08 12:03:49;;;;;;;;;;;;;;;;;;5060953;28;19944;-82
2020/12/08 12:06:15;;;;;;;;;;;;;;;;;;5070029;28;19996;-82
2020/12/08 12:08:42;;;;;;;;;;;;;;;;;;5056256;28;19925;-82
2020/12/08 12:11:09;;;;;;;;;;;;;;;;;;5059446;28;20336;-83
2020/12/08 12:13:35;;;;;;;;;;;;;;;;;;5067127;28;19952;-82
2020/12/08 12:16:02;;;;;;;;;;;;;;;;;;5053541;28;19925;-81
2020/12/08 12:18:29;;;;;;;;;;;;;;;;;;5054321;28;19952;-79
2020/12/08 12:20:55;;;;;;;;;;;;;;;;;;5050175;28;19992;-79
2020/12/08 12:23:22;;;;;;;;;;;;;;;;;;5050758;28;19987;-82
2020/12/08 12:25:48;;;;;;;;;;;;;;;;;;5047818;28;19975;-80
2020/12/08 12:28:15;;;;;;;;;;;;;;;;;;5049620;28;19949;-82
2020/12/08 12:30:42;;;;;;;;;;;;;;;;;;5049785;28;19932;-80
2020/12/08 12:33:08;;;;;;;;;;;;;;;;;;5041302;28;20019;-83
2020/12/08 12:35:35;;;;;;;;;;;;;;;;;;5042691;28;19929;-82
2020/12/08 12:38:01;;;;;;;;;;;;;;;;;;5052241;28;19967;-81
2020/12/08 12:40:28;;;;;;;;;;;;;;;;;;5057229;28;20016;-80
2020/12/08 12:42:55;;;;;;;;;;;;;;;;;;5056445;28;19975;-81
2020/12/08 12:45:21;;;;;;;;;;;;;;;;;;5053769;28;19961;-81
2020/12/08 12:47:48;;;;;;;;;;;;;;;;;;5040088;28;20431;-81
2020/12/08 12:50:14;;;;;;;;;;;;;;;;;;5042275;28;19931;-79
2020/12/08 12:52:41;;;;;;;;;;;;;;;;;;5046277;28;19925;-83
2020/12/08 12:55:09;;;;;;;;;;;;;;;;;;5044952;28;20188;-82
2020/12/08 12:57:35;;;;;;;;;;;;;;;;;;5049467;28;19925;-81
2020/12/08 13:00:03;;;;;;;;;;;;;;;;;;5043421;28;20478;-82
2020/12/08 13:02:30;;;;;;;;;;;;;;;;;;5051517;28;19936;-84
2020/12/08 13:04:57;;;;;;;;;;;;;;;;;;5056724;28;19929;-82
2020/12/08 13:07:23;;;;;;;;;;;;;;;;;;5044978;28;20025;-83
2020/12/08 13:09:50;;;;;;;;;;;;;;;;;;5057639;28;19936;-83
2020/12/08 13:12:18;;;;;;;;;;;;;;;;;;5044891;28;19933;-83
2020/12/08 13:14:45;;;;;;;;;;;;;;;;;;5050555;28;19970;-84
2020/12/08 13:17:12;;;;;;;;;;;;;;;;;;5052730;28;19925;-85
2020/12/08 13:19:39;;;;;;;;;;;;;;;;;;5041249;28;19959;-84
2020/12/08 13:22:05;;;;;;;;;;;;;;;;;;5042632;28;19925;-84
2020/12/08 13:24:32;;;;;;;;;;;;;;;;;;5041461;28;19926;-83
2020/12/08 13:26:59;;;;;;;;;;;;;;;;;;5040529;28;19948;-84
2020/12/08 13:29:26;;;;;;;;;;;;;;;;;;5041647;28;19925;-84
2020/12/08 13:31:52;;;;;;;;;;;;;;;;;;5041868;28;19971;-83
2020/12/08 13:34:19;;;;;;;;;;;;;;;;;;5041387;28;20189;-83
2020/12/08 13:36:45;;;;;;;;;;;;;;;;;;5040345;28;19925;-82
2020/12/08 13:39:12;;;;;;;;;;;;;;;;;;5041621;28;19932;-83
2020/12/08 13:44:23;;;;;;;;;;;;;;;;;;4981155;28;19926;-83
2020/12/08 13:46:49;;;;;;;;;;;;;;;;;;4977974;28;19954;-81
2020/12/08 13:49:16;;;;;;;;;;;;;;;;;;4986706;28;19926;-82
2020/12/08 13:51:44;;;;;;;;;;;;;;;;;;4998062;28;20313;-82
2020/12/08 13:54:10;;;;;;;;;;;;;;;;;;4979172;28;19973;-82
2020/12/08 13:56:37;;;;;;;;;;;;;;;;;;4978646;28;20375;-83
2020/12/08 13:59:04;;;;;;;;;;;;;;;;;;4982328;28;20013;-82
2020/12/08 14:01:30;;;;;;;;;;;;;;;;;;4991844;28;20311;-83
2020/12/08 14:03:57;;;;;;;;;;;;;;;;;;4981893;28;19973;-84
2020/12/08 14:06:23;;;;;;;;;;;;;;;;;;4991961;28;19926;-82
2020/12/08 14:08:50;;;;;;;;;;;;;;;;;;4986794;28;19926;-83
2020/12/08 14:11:17;;;;;;;;;;;;;;;;;;4983082;28;19981;-81
2020/12/08 14:13:43;;;;;;;;;;;;;;;;;;4983191;28;19926;-83
2020/12/08 14:16:10;;;;;;;;;;;;;;;;;;4996149;28;19998;-81
2020/12/08 14:18:37;;;;;;;;;;;;;;;;;;5010150;28;20005;-82
2020/12/08 14:21:03;;;;;;;;;;;;;;;;;;5016643;28;19971;-83
2020/12/08 14:23:30;;;;;;;;;;;;;;;;;;5041938;28;19964;-83
2020/12/08 14:25:57;;;;;;;;;;;;;;;;;;5042676;28;19925;-85
2020/12/08 14:28:26;;;;;;;;;;;;;;;;;;5046808;28;19965;-82
2020/12/08 14:30:53;;;;;;;;;;;;;;;;;;5056041;28;19925;-82
2020/12/08 14:33:19;;;;;;;;;;;;;;;;;;5048273;28;20086;-82
2020/12/08 14:35:46;;;;;;;;;;;;;;;;;;5042480;28;19988;-83
2020/12/08 14:38:13;;;;;;;;;;;;;;;;;;5045272;28;19925;-82
2020/12/08 14:40:39;;;;;;;;;;;;;;;;;;5042097;28;19968;-83
2020/12/08 14:43:06;;;;;;;;;;;;;;;;;;5032272;28;20275;-83
2020/12/08 14:45:32;;;;;;;;;;;;;;;;;;5037766;28;19932;-82
2020/12/08 14:47:59;;;;;;;;;;;;;;;;;;5041533;28;20285;-82
2020/12/08 14:50:26;;;;;;;;;;;;;;;;;;5045869;28;19957;-83
2020/12/08 14:52:52;;;;;;;;;;;;;;;;;;5052236;28;19952;-81
2020/12/08 14:55:19;;;;;;;;;;;;;;;;;;5039489;28;19963;-84
2020/12/08 14:57:46;;;;;;;;;;;;;;;;;;5043180;28;19960;-82
2020/12/08 15:00:12;;;;;;;;;;;;;;;;;;5045243;28;19971;-82
2020/12/08 15:02:39;;;;;;;;;;;;;;;;;;5040792;28;20565;-81
2020/12/08 15:05:05;;;;;;;;;;;;;;;;;;5039434;28;19926;-85
2020/12/08 15:07:32;;;;;;;;;;;;;;;;;;5039155;28;20360;-82
2020/12/08 15:09:58;;;;;;;;;;;;;;;;;;5039807;28;20020;-82
2020/12/08 15:12:25;;;;;;;;;;;;;;;;;;5040316;28;19925;-81
2020/12/08 15:14:52;;;;;;;;;;;;;;;;;;5041442;28;19976;-84
2020/12/08 15:17:18;;;;;;;;;;;;;;;;;;5043045;28;19925;-84
2020/12/08 15:19:45;;;;;;;;;;;;;;;;;;5045560;28;19935;-84
2020/12/08 15:22:11;;;;;;;;;;;;;;;;;;5044536;28;19971;-82
2020/12/08 15:24:38;;;;;;;;;;;;;;;;;;5044615;28;19925;-81
2020/12/08 15:27:05;;;;;;;;;;;;;;;;;;5046938;28;19925;-83
2020/12/08 15:29:31;;;;;;;;;;;;;;;;;;5047501;28;20005;-83
2020/12/08 15:31:58;;;;;;;;;;;;;;;;;;5049266;28;19961;-83
2020/12/08 15:34:24;;;;;;;;;;;;;;;;;;5044136;28;19925;-83
2020/12/08 15:36:51;;;;;;;;;;;;;;;;;;5040053;28;19931;-83
2020/12/08 15:39:18;;;;;;;;;;;;;;;;;;5034897;28;20298;-82
2020/12/08 15:41:44;;;;;;;;;;;;;;;;;;5041413;28;19956;-84
2020/12/08 15:44:11;;;;;;;;;;;;;;;;;;5040183;28;20012;-83
2020/12/08 15:46:38;;;;;;;;;;;;;;;;;;5049952;28;19967;-83
2020/12/08 15:49:04;;;;;;;;;;;;;;;;;;5041645;28;20321;-83
2020/12/08 15:51:31;;;;;;;;;;;;;;;;;;5042690;28;19925;-82
2020/12/08 15:53:57;;;;;;;;;;;;;;;;;;5048107;28;19925;-82
2020/12/08 15:56:24;;;;;;;;;;;;;;;;;;5053865;28;19959;-84
2020/12/08 15:58:51;;;;;;;;;;;;;;;;;;5045461;28;19931;-84
2020/12/08 16:01:18;;;;;;;;;;;;;;;;;;5047222;28;19956;-84
2020/12/08 16:03:45;;;;;;;;;;;;;;;;;;5045460;28;19960;-87
2020/12/08 16:06:11;;;;;;;;;;;;;;;;;;5054541;28;19919;-83
2020/12/08 16:08:38;;;;;;;;;;;;;;;;;;5048788;28;19964;-81
2020/12/08 16:11:05;;;;;;;;;;;;;;;;;;5052734;28;19932;-82
2020/12/08 16:13:31;;;;;;;;;;;;;;;;;;5054539;28;19929;-82
2020/12/08 16:15:58;;;;;;;;;;;;;;;;;;5056269;28;19909;-83
2020/12/08 16:18:24;;;;;;;;;;;;;;;;;;5055211;28;20000;-82
2020/12/08 16:20:51;;;;;;;;;;;;;;;;;;5047995;28;19928;-83
2020/12/08 16:23:18;;;;;;;;;;;;;;;;;;5050419;28;19924;-83
2020/12/08 16:25:44;;;;;;;;;;;;;;;;;;5044837;28;19948;-83
2020/12/08 16:28:11;;;;;;;;;;;;;;;;;;5029625;28;19925;-82
2020/12/08 16:30:38;;;;;;;;;;;;;;;;;;5035125;28;19925;-82
2020/12/08 16:33:07;;;;;;;;;;;;;;;;;;5038016;28;19933;-83
2020/12/08 16:35:34;;;;;;;;;;;;;;;;;;5041470;28;19925;-83
2020/12/08 16:38:01;;;;;;;;;;;;;;;;;;5054771;28;19925;-83
2020/12/08 16:40:27;;;;;;;;;;;;;;;;;;5046224;28;19932;-82
2020/12/08 16:42:54;;;;;;;;;;;;;;;;;;5046890;28;20020;-83